Main page
METAR-TAF:

METAR-TAF

Airports :

Bahrain International Airport

Bahrain, Bahrain

latitude: 26-16N, longitude: 050-39E, elevation: 2 m

Current weather observation

The report was made 25 minutes ago, at 06:00 UTC
Wind 14 kt from the West/Northwest
Temperature 21°C
Humidity 49%
Pressure 1022 hPa
Visibility 10 km or more
Few clouds at a height of 4900 ft

METAR: OBBI 220600Z 29014KT 9999 FEW049 21/10 Q1022 NOSIG

Time: 09:25 (06:25 UTC)

Forecast

The report was made 1 hour and 25 minutes ago, at 05:00 UTC
Forecast valid from 22 at 06 UTC to 23 at 12 UTC
Wind 12 kt from the North/Northwest
Visibility 10 km or more
Few clouds at a height of 4000 ft

TAF: OBBI 220500Z 2206/2312 33012KT 9999 FEW040

Weather observations and forecasts of more than 4000 airports (METAR and TAF reports).

The available stations are represented by yellow and red dots on the map.

Hover mouse over dot to see the name of the station.

Then click to see weather observations and forecasts.

To change the map : click on the green buttons with a black cross to zoom in, on the green button with a dash to zoom out, or on the green arrows for adjacent maps.


METAR-TAF: